aviador You're here:

KBHB Decoded Metar

BAR HARBOR in ME, USA
Report Time2017-06-27 04:56:00
UTC Time2017-06-27 05:15:16
Flight Rules vfr VFR
WindCalm
Visibility9999 m
Phenomena:N/A
Clouds:N/A
Expected CloudBase > 400 ft AGL from Temp-Dew spread
CeilingNone
Temp12°C (ISA -3)
Dew Point11°C (94% RH)
QNH1015 hPa
Density Alt-144 ft
Elevation85 ft
Report Wrong Elevation
Raw Report
KBHB 270456Z AUTO 00000KT 10SM CLR 12/11 A2998 RMK AO2 SLP155
T01220111 $=

Extra information for KBHB:More info

Metar Taf Metar & Taf Last 4 Metars F.Rules Stats Wind Profile Meteogram Temp Stats Airport Information Weather charts Add Link Nearby VenuesMetar ALERT Operation Metar Decoded Social comments

AIRNAV info for KBHB